Les Masies de Roda





Hora UTC 10:05
Temperatura 15.3 ºC
Sòl 15 cm 22.2 ºC
Subsòl 10 cm 13.7 ºC
Humitat 44.5 %
Pressió 1016.1 hPa
Pluja 0.0 mm
Velocitat vent 6.5 km/h
Direcció vent SSE
Radiació solar 708.3 W/m²

Dades diàries 2021-04-19



Hora UTC (hivern +1h; estiu +2h)
Temperatura (ºC) Humitat (%) Pressió (hPa) Velocitat vent (km/h) Precipitació (mm) Radiació solar (W/m²)
Hora UTC Aire Sòl 15 cm Subsòl 10 cm Humitat Pressió Vel. Dir. Vel. Max Dir. Intent. màx 5 min. Rad. Sol.
00:05 1.7 -0.6 8.2 95.2 1018.5 0.0 NNE 0.0 NNW 0.0 0.1
00:10 1.7 -0.5 8.1 95.1 1018.4 0.0 NNE 0.0 NNW 0.0 0.1
00:15 1.6 -0.5 8.1 94.8 1018.4 0.0 NNE 0.0 NNW 0.0 0.1
00:20 1.4 -0.5 8.1 94.9 1018.4 0.0 NNE 0.0 NNW 0.0 0.1
00:25 1.5 -0.5 8.0 95.3 1018.3 0.0 NNE 0.0 NNW 0.0 0.1
00:30 1.5 -0.5 8.0 95.6 1018.3 0.0 NNE 0.0 NNW 0.0 0.1
00:35 1.9 -0.4 8.0 96.5 1018.2 0.0 NNE 0.0 NNW 0.0 0.1
00:40 2.0 -0.2 8.0 96.5 1018.2 0.0 NNE 0.0 NNW 0.0 0.1
00:45 2.0 -0.1 7.9 96.3 1018.1 0.0 NNE 0.0 NNW 0.0 0.1
00:50 1.9 -0.1 7.9 96.0 1018.1 0.0 NNE 0.0 NNW 0.0 0.1
00:55 1.9 -0.1 7.9 96.2 1018.1 0.0 NNE 0.0 NNW 0.0 0.1
01:00 1.9 0.0 7.9 96.3 1018.0 0.0 NNE 0.0 NNW 0.0 0.1
01:05 1.9 0.1 7.9 96.3 1017.9 0.0 NNE 0.0 NNW 0.0 0.1
01:10 1.8 0.2 7.9 96.1 1017.9 0.0 NNE 0.0 NNW 0.0 0.1
01:15 1.6 0.1 7.8 95.8 1017.9 0.0 NNE 0.0 NNW 0.0 0.1
01:20 1.6 0.1 7.8 96.2 1017.9 0.0 NNE 0.0 NNW 0.0 0.1
01:25 1.6 0.2 7.8 96.3 1017.8 0.0 NNE 0.0 NNW 0.0 0.1
01:30 1.7 0.3 7.8 96.5 1017.8 0.0 NNE 0.0 W 0.0 0.1
01:35 1.8 0.4 7.8 96.6 1017.8 0.0 NNE 0.0 W 0.0 0.1
01:40 2.0 0.5 7.8 96.9 1017.8 0.0 NNE 0.0 W 0.0 0.1
01:45 2.1 0.5 7.8 97.0 1017.8 0.0 NNE 0.0 W 0.0 0.1
01:50 2.3 0.6 7.8 97.0 1017.8 0.0 NNE 0.0 W 0.0 0.1
01:55 2.3 0.6 7.8 96.9 1017.7 0.0 NNE 0.0 W 0.0 0.1
02:00 2.3 0.6 7.8 96.5 1017.7 0.0 NNE 0.0 W 0.0 0.1
02:05 2.2 0.5 7.7 96.4 1017.8 0.0 NNE 0.0 SW 0.0 0.1
02:10 2.3 0.4 7.7 96.6 1017.8 0.0 NNE 0.0 ENE 0.0 0.1
02:15 2.3 0.3 7.7 96.5 1017.7 0.0 NNE 0.0 ENE 0.0 0.1
02:20 2.3 0.2 7.7 96.4 1017.7 0.0 NNE 0.0 ENE 0.0 0.1
02:25 2.1 0.2 7.6 96.1 1017.6 0.0 NNE 0.0 ENE 0.0 0.1
02:30 1.9 0.0 7.6 95.9 1017.7 0.0 NNE 0.0 ENE 0.0 0.1
02:35 1.9 0.0 7.6 96.2 1017.6 0.0 NNE 0.0 ENE 0.0 0.1
02:40 1.9 -0.1 7.5 96.3 1017.6 0.0 NNE 0.0 NNE 0.0 0.1
02:45 1.9 -0.3 7.5 96.3 1017.6 0.0 NNE 0.0 NNE 0.0 0.1
02:50 1.9 -0.4 7.5 96.5 1017.6 0.0 NNE 0.0 NNE 0.0 0.1
02:55 1.6 -0.5 7.4 96.0 1017.6 0.0 NNE 0.0 NNE 0.0 0.1
03:00 1.5 -0.6 7.4 96.1 1017.5 0.0 NNE 0.0 NW 0.0 0.1
03:05 1.6 -0.6 7.3 96.5 1017.5 0.0 NNE 0.0 NW 0.0 0.1
03:10 1.7 -0.6 7.3 96.8 1017.5 0.0 NNE 0.0 NW 0.0 0.1
03:15 1.6 -0.6 7.3 96.8 1017.5 0.0 NNE 0.0 NW 0.0 0.1
03:20 1.6 -0.5 7.3 96.8 1017.4 0.0 NNE 0.0 NW 0.0 0.1
03:25 1.6 -0.3 7.3 96.9 1017.4 0.0 NNE 0.0 NW 0.0 0.1
03:30 1.3 -0.3 7.2 96.6 1017.4 0.0 NNE 0.0 NW 0.0 0.1
03:35 1.3 -0.4 7.2 96.8 1017.4 0.0 NNE 0.0 NW 0.0 0.1
03:40 1.5 -0.4 7.2 97.2 1017.4 0.0 NNE 0.0 NW 0.0 0.1
03:45 1.7 -0.3 7.2 97.4 1017.3 0.0 NNE 0.0 NW 0.0 0.1
03:50 1.6 -0.2 7.2 97.1 1017.3 0.0 NNE 0.0 NW 0.0 0.1
03:55 1.3 -0.2 7.1 97.0 1017.3 0.0 NNE 0.0 NW 0.0 0.1
04:00 1.4 -0.3 7.1 97.2 1017.3 0.0 NNE 0.0 NW 0.0 0.1
04:05 1.4 -0.4 7.1 97.3 1017.3 0.0 NNE 0.0 NW 0.0 0.1
04:10 1.3 -0.4 7.1 97.2 1017.3 0.0 NNE 0.0 NW 0.0 0.1
04:15 1.2 -0.5 7.0 97.2 1017.3 0.0 NNE 0.0 NW 0.0 0.1
04:20 1.3 -0.6 7.0 97.4 1017.3 0.0 NNE 0.0 NW 0.0 0.1
04:25 1.3 -0.7 7.0 97.3 1017.3 0.0 NNE 0.0 NW 0.0 0.1
04:30 1.3 -0.7 7.0 97.4 1017.3 0.0 NNE 0.0 NW 0.0 0.1
04:35 1.2 -0.8 6.9 97.4 1017.2 0.0 NNE 0.0 NW 0.0 0.1
04:40 1.2 -1.0 6.9 97.4 1017.2 0.0 NNE 0.0 NW 0.0 0.1
04:45 1.2 -1.1 6.9 97.4 1017.2 0.0 NNE 0.0 NW 0.0 0.1
04:50 1.2 -1.2 6.8 97.6 1017.2 0.0 NNE 0.0 NW 0.0 0.4
04:55 1.2 -1.3 6.8 97.5 1017.1 0.0 NNE 0.0 NE 0.0 1.0
05:00 1.1 -1.3 6.8 97.4 1017.2 0.0 NNE 0.0 NE 0.0 2.3
05:05 0.9 -1.4 6.7 97.3 1017.2 0.0 NNE 0.0 NE 0.0 3.9
05:10 1.0 -1.5 6.7 97.5 1017.2 0.0 NNE 0.0 NE 0.0 6.2
05:15 1.0 -1.4 6.7 97.4 1017.2 0.0 NNE 0.0 NE 0.0 8.9
05:20 0.9 -1.5 6.6 97.3 1017.3 0.0 NNE 0.0 NE 0.0 11.9
05:25 0.7 -1.5 6.6 97.2 1017.3 0.0 NNE 0.0 NE 0.0 14.9
05:30 0.7 -1.4 6.6 97.2 1017.4 0.0 NNE 0.0 NE 0.0 22.0
05:35 0.6 -1.5 6.6 97.0 1017.4 0.0 NNE 0.0 NE 0.0 29.2
05:40 0.7 -1.5 6.6 97.2 1017.4 0.0 NNE 0.0 WNW 0.0 43.1
05:45 0.9 -1.3 6.6 97.4 1017.4 0.0 NNE 0.0 WNW 0.0 57.6
05:50 1.2 -0.9 6.6 97.7 1017.4 0.0 NNE 0.0 WNW 0.0 71.5
05:55 1.7 -0.7 6.6 97.9 1017.4 0.0 NNE 0.0 NNE 0.0 72.7
06:00 1.9 -0.3 6.7 97.5 1017.4 0.0 NNE 0.0 NNE 0.0 71.1
06:05 1.9 0.0 6.7 96.9 1017.4 0.0 NNE 0.0 ESE 0.0 30.9
06:10 1.8 0.1 6.7 96.8 1017.4 0.0 NNE 0.0 E 0.0 33.3
06:15 1.7 0.1 6.7 96.7 1017.4 0.0 NNE 0.0 E 0.0 39.6
06:20 1.6 0.1 6.7 96.6 1017.5 0.0 NNE 0.0 E 0.0 42.9
06:25 1.6 0.1 6.7 96.7 1017.5 0.0 NNE 0.0 E 0.0 115.9
06:30 2.3 0.5 6.8 97.4 1017.5 0.0 NNE 0.0 E 0.0 174.6
06:35 2.9 1.1 7.0 96.0 1017.5 0.0 NNE 0.0 NE 0.0 126.0
06:40 3.4 1.7 7.1 94.4 1017.6 0.0 NNE 0.0 ENE 0.0 206.8
06:45 3.5 2.4 7.3 93.8 1017.6 0.0 NNE 0.0 ENE 0.0 175.8
06:50 3.9 2.9 7.4 93.3 1017.6 0.0 NNE 0.0 ENE 0.0 234.0
06:55 4.3 3.4 7.6 92.3 1017.5 0.0 NNE 0.0 ENE 0.0 250.5
07:00 4.5 4.1 7.8 91.0 1017.6 0.0 NNE 0.0 W 0.0 246.6
07:05 4.6 4.3 7.9 91.3 1017.5 0.0 NNE 0.0 WNW 0.0 143.5
07:10 4.7 4.4 7.9 89.2 1017.5 0.0 NNE 0.0 W 0.0 228.1
07:15 5.2 4.9 8.0 87.7 1017.5 0.0 NNE 0.0 S 0.0 274.0
07:20 5.6 5.7 8.1 85.2 1017.4 0.0 NNE 0.0 S 0.0 310.6
07:25 5.9 6.1 8.3 84.8 1017.4 0.0 NNE 0.0 SE 0.0 324.5
07:30 6.2 6.4 8.5 84.2 1017.3 0.0 NNE 0.0 S 0.0 292.5
07:35 6.6 6.6 8.6 82.6 1017.3 0.0 NNE 0.0 S 0.0 351.5
07:40 6.9 7.0 8.8 82.2 1017.3 0.0 NNE 0.0 WSW 0.0 322.0
07:45 7.1 7.4 9.0 80.5 1017.2 0.0 NNE 0.0 SSW 0.0 379.5
07:50 7.4 7.9 9.1 80.1 1017.1 0.0 NNE 0.0 WSW 0.0 396.2
07:55 7.5 8.4 9.4 76.1 1017.1 0.0 NNE 0.0 NNW 0.0 408.1
08:00 8.2 9.3 9.6 73.9 1017.0 0.0 NNE 0.0 WNW 0.0 420.7
08:05 8.2 9.7 9.8 75.5 1017.0 0.0 NNE 0.0 NNW 0.0 433.2
08:10 8.6 10.4 10.0 75.1 1017.0 0.7 N 6.1 N 0.0 447.7
08:15 8.9 11.1 10.2 73.9 1016.9 0.7 ENE 6.1 ENE 0.0 462.1
08:20 9.3 12.3 10.3 72.2 1016.8 1.0 E 6.1 E 0.0 475.6
08:25 9.6 12.4 10.4 73.5 1016.8 0.0 NNE 0.0 SSW 0.0 487.8
08:30 9.9 13.0 10.6 74.8 1016.8 0.0 NNE 0.0 W 0.0 501.3
08:35 10.2 13.9 10.9 72.3 1016.7 0.0 NNE 0.0 NW 0.0 514.5
08:40 11.1 15.0 11.0 71.3 1016.7 1.3 SW 6.1 WSW 0.0 527.3
08:45 11.4 15.8 11.2 68.3 1016.7 0.2 SW 3.4 SSW 0.0 540.1
08:50 11.6 16.2 11.4 69.1 1016.6 0.4 WSW 3.4 SE 0.0 552.8
08:55 12.0 16.5 11.6 68.7 1016.6 1.6 SW 6.1 SSW 0.0 564.5
09:00 12.3 17.1 11.8 68.5 1016.6 2.6 W 6.1 W 0.0 575.6
09:05 12.4 17.4 12.0 66.0 1016.5 2.6 W 6.1 W 0.0 587.0
09:10 12.9 17.9 12.3 64.7 1016.4 4.8 W 8.8 W 0.0 597.9
09:15 13.3 18.7 12.5 57.2 1016.4 1.3 W 6.1 W 0.0 608.8
09:20 13.7 19.6 12.8 55.2 1016.3 0.7 ESE 6.1 ESE 0.0 621.9
09:25 14.0 20.5 12.9 49.1 1016.3 7.5 ESE 16.9 ESE 0.0 633.1
09:30 14.5 20.7 13.0 45.9 1016.2 7.8 SE 14.2 E 0.0 642.8
09:35 14.6 20.5 13.0 45.1 1016.2 10.3 SE 19.6 SE 0.0 653.6
09:40 14.7 20.6 13.1 45.9 1016.2 8.9 SE 16.9 E 0.0 662.7
09:45 15.1 21.0 13.2 45.5 1016.2 8.7 SSE 19.6 SSE 0.0 672.5
09:50 15.1 21.1 13.4 46.1 1016.2 7.4 SE 22.3 ESE 0.0 682.9
09:55 15.4 21.8 13.5 43.8 1016.1 10.7 SE 19.6 SE 0.0 692.1
10:00 15.2 21.8 13.6 43.8 1016.1 8.2 ESE 16.9 SSE 0.0 701.0
10:05 15.3 22.2 13.7 44.5 1016.1 6.5 SSE 16.9 SSE 0.0 708.3
Màxima 15.5 22.2 13.7 97.9 1018.5 10.7 SE 22.3 ESE 0.0 708.3
Mínima 0.5 -1.5 6.6 43.8 1016.1
Total 0.0